Time;durP1;ratioP1;P1;durP2;ratioP2;P2;SDS_P1;SDS_P2;PMS_P1;PMS_P2;Temp;Humidity;BMP_temperature;BMP_pressure;BME280_temperature;BME280_humidity;BME280_pressure;Samples;Min_cycle;Max_cycle;Signal;HPM_P1;HPM_P2
2022/03/17 00:02:08;;;;;;;16.90;4.28;;;;;;;;;;5071547;28;20017;-67
2022/03/17 00:04:33;;;;;;;14.48;3.67;;;;;;;;;;5071460;28;20025;-67
2022/03/17 00:06:59;;;;;;;14.32;3.67;;;;;;;;;;5071310;28;20036;-68
2022/03/17 00:09:25;;;;;;;23.00;4.53;;;;;;;;;;5070450;28;20111;-68
2022/03/17 00:11:52;;;;;;;17.45;4.13;;;;;;;;;;5070601;28;20465;-68
2022/03/17 00:14:18;;;;;;;14.25;3.67;;;;;;;;;;5070851;28;20082;-68
2022/03/17 00:16:43;;;;;;;18.92;4.13;;;;;;;;;;5070799;28;20055;-67
2022/03/17 00:19:09;;;;;;;13.38;3.85;;;;;;;;;;5070600;28;20461;-67
2022/03/17 00:21:36;;;;;;;15.75;3.92;;;;;;;;;;5070820;28;20502;-67
2022/03/17 00:24:03;;;;;;;15.02;4.03;;;;;;;;;;5070608;28;20059;-67
2022/03/17 00:26:28;;;;;;;13.60;4.00;;;;;;;;;;5070496;28;20079;-68
2022/03/17 00:28:54;;;;;;;16.67;4.22;;;;;;;;;;5070506;28;20059;-67
2022/03/17 00:31:19;;;;;;;14.80;4.38;;;;;;;;;;5070209;28;20031;-67
2022/03/17 00:33:45;;;;;;;16.08;3.88;;;;;;;;;;5070432;28;20099;-68
2022/03/17 00:36:10;;;;;;;15.68;3.95;;;;;;;;;;5070454;28;20484;-68
2022/03/17 00:38:35;;;;;;;14.18;3.88;;;;;;;;;;5070065;28;20036;-67
2022/03/17 00:41:01;;;;;;;15.57;4.20;;;;;;;;;;5070356;28;20020;-67
2022/03/17 00:43:27;;;;;;;15.35;4.57;;;;;;;;;;5070454;28;20520;-66
2022/03/17 00:45:53;;;;;;;23.52;4.35;;;;;;;;;;5070458;28;20031;-67
2022/03/17 00:48:18;;;;;;;17.77;4.38;;;;;;;;;;5070307;28;20025;-67
2022/03/17 00:50:43;;;;;;;19.90;4.45;;;;;;;;;;5070010;28;20060;-68
2022/03/17 00:53:09;;;;;;;16.20;4.30;;;;;;;;;;5068814;28;20063;-67
2022/03/17 00:55:34;;;;;;;17.80;4.13;;;;;;;;;;5069826;28;20541;-66
2022/03/17 00:58:00;;;;;;;13.43;4.03;;;;;;;;;;5070393;28;20468;-67
2022/03/17 01:00:25;;;;;;;15.35;4.10;;;;;;;;;;5069948;28;20633;-67
2022/03/17 01:02:53;;;;;;;17.75;4.35;;;;;;;;;;5070290;28;20511;-67
2022/03/17 01:05:19;;;;;;;16.73;4.00;;;;;;;;;;5069921;28;20028;-67
2022/03/17 01:07:45;;;;;;;19.48;4.18;;;;;;;;;;5068833;28;20027;-67
2022/03/17 01:10:13;;;;;;;11.45;3.92;;;;;;;;;;5069639;28;20557;-68
2022/03/17 01:12:38;;;;;;;15.85;3.97;;;;;;;;;;5070010;28;20448;-67
2022/03/17 01:15:05;;;;;;;15.50;4.40;;;;;;;;;;5069785;28;20048;-66
2022/03/17 01:17:32;;;;;;;16.25;4.30;;;;;;;;;;5070085;28;20028;-67
2022/03/17 01:19:57;;;;;;;13.98;4.10;;;;;;;;;;5069668;28;20111;-66
2022/03/17 01:22:23;;;;;;;16.17;4.60;;;;;;;;;;5069949;28;20039;-67
2022/03/17 01:24:51;;;;;;;14.95;4.00;;;;;;;;;;5069596;28;20052;-67
2022/03/17 01:27:20;;;;;;;17.80;4.45;;;;;;;;;;5070029;28;20070;-66
2022/03/17 01:29:48;;;;;;;12.77;4.32;;;;;;;;;;5069601;28;20032;-66
2022/03/17 01:32:14;;;;;;;17.95;4.50;;;;;;;;;;5069636;28;20111;-67
2022/03/17 01:34:39;;;;;;;19.17;5.35;;;;;;;;;;5069643;28;20103;-67
2022/03/17 01:37:05;;;;;;;14.73;4.35;;;;;;;;;;5069917;28;20064;-68
2022/03/17 01:39:30;;;;;;;14.45;4.18;;;;;;;;;;5069653;28;20553;-66
2022/03/17 01:41:57;;;;;;;18.10;4.55;;;;;;;;;;5069729;28;20032;-67
2022/03/17 01:44:23;;;;;;;15.25;4.75;;;;;;;;;;5069773;28;20116;-67
2022/03/17 01:49:37;;;;;;;14.70;4.35;;;;;;;;;;5069899;28;20039;-67
2022/03/17 01:52:03;;;;;;;14.93;4.93;;;;;;;;;;5069389;28;20016;-68
2022/03/17 01:54:28;;;;;;;13.38;4.47;;;;;;;;;;5069660;28;20115;-67
2022/03/17 01:56:55;;;;;;;13.20;4.57;;;;;;;;;;5069757;28;20095;-66
2022/03/17 01:59:21;;;;;;;15.57;4.18;;;;;;;;;;5069701;28;20029;-67
2022/03/17 02:01:48;;;;;;;15.30;4.07;;;;;;;;;;5069506;28;20021;-67
2022/03/17 02:04:14;;;;;;;17.77;3.92;;;;;;;;;;5069714;28;20443;-68
2022/03/17 02:06:40;;;;;;;18.23;4.28;;;;;;;;;;5069574;28;20533;-67
2022/03/17 02:09:05;;;;;;;15.50;3.95;;;;;;;;;;5069524;28;20413;-67
2022/03/17 02:14:26;;;;;;;14.90;3.95;;;;;;;;;;5069453;28;20031;-67
2022/03/17 02:16:52;;;;;;;17.42;4.45;;;;;;;;;;5069414;28;20067;-67
2022/03/17 02:19:21;;;;;;;13.60;4.25;;;;;;;;;;5069855;28;20048;-68
2022/03/17 02:21:48;;;;;;;14.15;3.85;;;;;;;;;;5069147;28;20021;-67
2022/03/17 02:26:59;;;;;;;10.25;3.53;;;;;;;;;;5069130;28;20337;-67
2022/03/17 02:29:25;;;;;;;13.00;4.32;;;;;;;;;;5069288;28;20270;-67
2022/03/17 02:31:51;;;;;;;16.75;4.00;;;;;;;;;;5068755;28;20263;-68
2022/03/17 02:34:17;;;;;;;17.38;3.97;;;;;;;;;;5071744;28;20171;-67
2022/03/17 02:36:48;;;;;;;14.30;3.97;;;;;;;;;;5072772;28;20056;-67
2022/03/17 02:39:17;;;;;;;;;;;;;;;;;;5073350;28;20028;-67
2022/03/17 02:41:42;;;;;;;19.02;3.92;;;;;;;;;;5073045;28;19912;-67
2022/03/17 02:44:08;;;;;;;16.77;3.72;;;;;;;;;;5072861;28;20033;-67
2022/03/17 02:46:34;;;;;;;14.90;4.10;;;;;;;;;;5072465;28;20048;-67
2022/03/17 02:49:00;;;;;;;15.05;3.53;;;;;;;;;;5072486;28;20071;-67
2022/03/17 02:51:25;;;;;;;13.85;3.72;;;;;;;;;;5072217;28;20017;-69
2022/03/17 02:53:51;;;;;;;17.98;3.78;;;;;;;;;;5073044;28;20017;-68
2022/03/17 02:56:16;;;;;;;20.45;3.55;;;;;;;;;;5072405;28;20074;-67
2022/03/17 02:58:41;;;;;;;14.13;3.95;;;;;;;;;;5072875;28;20078;-67
2022/03/17 03:01:07;;;;;;;14.95;3.72;;;;;;;;;;5072387;28;20210;-66
2022/03/17 03:03:32;;;;;;;17.58;4.22;;;;;;;;;;5072472;28;20025;-67
2022/03/17 03:05:58;;;;;;;12.30;3.50;;;;;;;;;;5072161;28;20024;-67
2022/03/17 03:08:24;;;;;;;16.77;3.63;;;;;;;;;;5072311;28;20029;-68
2022/03/17 03:10:49;;;;;;;10.25;4.07;;;;;;;;;;5071593;28;20476;-67
2022/03/17 03:13:15;;;;;;;12.77;4.10;;;;;;;;;;5072208;28;20024;-70
2022/03/17 03:15:41;;;;;;;18.38;4.10;;;;;;;;;;5071815;28;20025;-67
2022/03/17 03:18:07;;;;;;;14.25;3.70;;;;;;;;;;5072276;28;20571;-69
2022/03/17 03:20:32;;;;;;;16.25;4.13;;;;;;;;;;5071955;28;20108;-66
2022/03/17 03:22:58;;;;;;;13.85;4.40;;;;;;;;;;5072198;28;20020;-67
2022/03/17 03:25:23;;;;;;;11.35;3.55;;;;;;;;;;5071746;28;20519;-67
2022/03/17 03:27:49;;;;;;;13.80;4.07;;;;;;;;;;5072105;28;20070;-67
2022/03/17 03:30:15;;;;;;;13.15;3.90;;;;;;;;;;5071903;28;20491;-67
2022/03/17 03:32:44;;;;;;;11.05;3.58;;;;;;;;;;5071636;28;20020;-67
2022/03/17 03:37:55;;;;;;;12.75;3.70;;;;;;;;;;5071878;28;20560;-67
2022/03/17 03:40:21;;;;;;;15.18;4.00;;;;;;;;;;5071680;28;20099;-67
2022/03/17 03:42:47;;;;;;;12.70;3.72;;;;;;;;;;5071653;28;20112;-67
2022/03/17 03:45:13;;;;;;;13.23;3.50;;;;;;;;;;5071700;28;20028;-67
2022/03/17 03:47:38;;;;;;;13.50;3.80;;;;;;;;;;5071153;28;20021;-67
2022/03/17 03:50:04;;;;;;;11.98;3.40;;;;;;;;;;5071467;28;20047;-67
2022/03/17 03:52:30;;;;;;;13.02;3.97;;;;;;;;;;5071144;28;20021;-67
2022/03/17 03:54:55;;;;;;;15.10;4.15;;;;;;;;;;5071415;28;20035;-68
2022/03/17 03:57:21;;;;;;;14.68;3.85;;;;;;;;;;5071459;28;20073;-67
2022/03/17 03:59:47;;;;;;;11.82;3.53;;;;;;;;;;5071440;28;20029;-67
2022/03/17 04:02:13;;;;;;;20.17;4.57;;;;;;;;;;5070901;28;20412;-67
2022/03/17 04:04:40;;;;;;;14.98;3.88;;;;;;;;;;5071180;28;20040;-67
2022/03/17 04:07:11;;;;;;;10.10;3.55;;;;;;;;;;5070874;28;20284;-67
2022/03/17 04:09:39;;;;;;;12.15;3.90;;;;;;;;;;5071332;28;20028;-67
2022/03/17 04:12:07;;;;;;;18.58;4.18;;;;;;;;;;5070738;28;20040;-67
2022/03/17 04:14:33;;;;;;;14.00;4.15;;;;;;;;;;5071220;28;20025;-67
2022/03/17 04:16:58;;;;;;;17.40;4.05;;;;;;;;;;5070717;28;20150;-67
2022/03/17 04:19:24;;;;;;;15.30;3.78;;;;;;;;;;5070987;28;20031;-67
2022/03/17 04:21:51;;;;;;;17.80;3.72;;;;;;;;;;5070623;28;20115;-68
2022/03/17 04:24:17;;;;;;;14.13;3.90;;;;;;;;;;5070727;28;20024;-67
2022/03/17 04:26:43;;;;;;;17.45;3.95;;;;;;;;;;5070222;28;20059;-68
2022/03/17 04:29:10;;;;;;;19.15;3.88;;;;;;;;;;5070782;28;20028;-68
2022/03/17 04:31:36;;;;;;;11.02;3.75;;;;;;;;;;5070264;28;20502;-68
2022/03/17 04:34:02;;;;;;;13.38;3.65;;;;;;;;;;5070801;28;20028;-67
2022/03/17 04:36:28;;;;;;;12.68;3.80;;;;;;;;;;5070633;28;20111;-67
2022/03/17 04:38:53;;;;;;;15.45;4.05;;;;;;;;;;5070677;28;20103;-67
2022/03/17 04:41:19;;;;;;;15.43;3.55;;;;;;;;;;5070147;28;20042;-67
2022/03/17 04:43:45;;;;;;;15.02;3.95;;;;;;;;;;5070397;28;20484;-68
2022/03/17 04:46:11;;;;;;;16.27;3.90;;;;;;;;;;5070091;28;20057;-67
2022/03/17 04:48:40;;;;;;;19.77;4.40;;;;;;;;;;5070238;28;20577;-67
2022/03/17 04:51:06;;;;;;;12.70;3.88;;;;;;;;;;5070244;28;20056;-65
2022/03/17 04:53:32;;;;;;;23.25;4.32;;;;;;;;;;5070181;28;20025;-67
2022/03/17 04:56:03;;;;;;;17.50;3.83;;;;;;;;;;5069872;28;20025;-67
2022/03/17 04:58:31;;;;;;;18.17;4.45;;;;;;;;;;5070183;28;20103;-68
2022/03/17 05:00:57;;;;;;;19.52;3.80;;;;;;;;;;5070006;28;20461;-67
2022/03/17 05:03:23;;;;;;;13.40;4.10;;;;;;;;;;5069753;28;20504;-67
2022/03/17 05:05:49;;;;;;;12.73;3.80;;;;;;;;;;5069983;28;20035;-68
2022/03/17 05:08:15;;;;;;;15.73;3.88;;;;;;;;;;5069930;28;20025;-67
2022/03/17 05:10:41;;;;;;;14.25;3.88;;;;;;;;;;5070319;28;20153;-67
2022/03/17 05:13:09;;;;;;;18.10;4.80;;;;;;;;;;5069735;28;20040;-68
2022/03/17 05:15:36;;;;;;;23.50;4.80;;;;;;;;;;5070103;28;20038;-67
2022/03/17 05:18:03;;;;;;;19.42;4.95;;;;;;;;;;5069882;28;20035;-68
2022/03/17 05:20:29;;;;;;;14.02;4.25;;;;;;;;;;5070178;28;20028;-67
2022/03/17 05:22:54;;;;;;;16.23;4.38;;;;;;;;;;5069514;28;20024;-67
2022/03/17 05:25:20;;;;;;;18.00;4.47;;;;;;;;;;5069645;28;20412;-67
2022/03/17 05:27:48;;;;;;;16.63;4.35;;;;;;;;;;5069443;28;20056;-68
2022/03/17 05:30:15;;;;;;;14.95;4.05;;;;;;;;;;5069814;28;20437;-67
2022/03/17 05:32:42;;;;;;;15.02;4.15;;;;;;;;;;5069369;28;20055;-67
2022/03/17 05:35:08;;;;;;;17.55;4.38;;;;;;;;;;5069968;28;20101;-67
2022/03/17 05:37:34;;;;;;;15.52;4.40;;;;;;;;;;5068460;28;20039;-66
2022/03/17 05:40:02;;;;;;;15.25;3.95;;;;;;;;;;5069972;28;20059;-66
2022/03/17 05:42:28;;;;;;;16.55;4.20;;;;;;;;;;5068233;28;20442;-69
2022/03/17 05:44:54;;;;;;;14.60;4.30;;;;;;;;;;5069519;28;20541;-67
2022/03/17 05:47:20;;;;;;;15.45;4.53;;;;;;;;;;5069692;28;20055;-67
2022/03/17 05:49:47;;;;;;;15.85;4.43;;;;;;;;;;5069886;28;20481;-66
2022/03/17 05:52:13;;;;;;;15.82;5.15;;;;;;;;;;5069550;28;20067;-67
2022/03/17 05:54:38;;;;;;;16.05;4.80;;;;;;;;;;5069858;28;20113;-67
2022/03/17 05:57:04;;;;;;;14.02;4.80;;;;;;;;;;5069508;28;20029;-68
2022/03/17 05:59:29;;;;;;;21.45;5.60;;;;;;;;;;5070025;28;20029;-67
2022/03/17 06:01:55;;;;;;;21.05;5.40;;;;;;;;;;5069733;28;20032;-69
2022/03/17 06:04:20;;;;;;;17.05;5.32;;;;;;;;;;5069248;28;20027;-67
2022/03/17 06:06:46;;;;;;;15.82;4.70;;;;;;;;;;5069350;28;20036;-68
2022/03/17 06:09:11;;;;;;;16.92;5.20;;;;;;;;;;5072150;28;20028;-66
2022/03/17 06:11:36;;;;;;;15.70;5.15;;;;;;;;;;5073392;28;20432;-68
2022/03/17 06:14:02;;;;;;;18.05;5.20;;;;;;;;;;5072990;28;20082;-68
2022/03/17 06:16:28;;;;;;;14.52;5.25;;;;;;;;;;5073176;28;20120;-68
2022/03/17 06:18:53;;;;;;;19.38;5.38;;;;;;;;;;5072867;28;20484;-68
2022/03/17 06:21:18;;;;;;;14.18;5.53;;;;;;;;;;5073051;28;20035;-67
2022/03/17 06:23:44;;;;;;;17.35;5.50;;;;;;;;;;5072635;28;20400;-69
2022/03/17 06:26:10;;;;;;;23.30;6.35;;;;;;;;;;5072737;28;20048;-67
2022/03/17 06:28:36;;;;;;;23.60;5.90;;;;;;;;;;5072909;28;20024;-66
2022/03/17 06:31:01;;;;;;;21.08;6.28;;;;;;;;;;5072856;28;20035;-67
2022/03/17 06:33:29;;;;;;;24.17;5.80;;;;;;;;;;5072785;28;20028;-67
2022/03/17 06:35:55;;;;;;;24.75;5.70;;;;;;;;;;5073189;28;20028;-68
2022/03/17 06:38:21;;;;;;;16.30;5.65;;;;;;;;;;5072420;28;20131;-67
2022/03/17 06:40:46;;;;;;;24.40;6.05;;;;;;;;;;5072325;28;20455;-69
2022/03/17 06:43:14;;;;;;;20.33;5.85;;;;;;;;;;5072686;28;20107;-71
2022/03/17 06:45:40;;;;;;;16.75;5.65;;;;;;;;;;5072458;28;20032;-68
2022/03/17 06:48:06;;;;;;;21.98;5.80;;;;;;;;;;5072452;28;20028;-67
2022/03/17 06:50:31;;;;;;;23.48;6.20;;;;;;;;;;5072671;28;20028;-68
2022/03/17 06:52:57;;;;;;;20.10;5.80;;;;;;;;;;5072418;28;20029;-69
2022/03/17 06:55:22;;;;;;;18.88;5.38;;;;;;;;;;5072532;28;20103;-69
2022/03/17 06:57:48;;;;;;;17.67;6.03;;;;;;;;;;5072303;28;20102;-67
2022/03/17 07:00:16;;;;;;;20.20;5.70;;;;;;;;;;5072211;28;20028;-67
2022/03/17 07:02:42;;;;;;;18.50;6.07;;;;;;;;;;5071953;28;20029;-67
2022/03/17 07:05:08;;;;;;;22.38;5.47;;;;;;;;;;5072350;28;20036;-68
2022/03/17 07:07:34;;;;;;;19.88;6.53;;;;;;;;;;5072487;28;20036;-68
2022/03/17 07:10:00;;;;;;;16.88;6.72;;;;;;;;;;5072062;28;20545;-71
2022/03/17 07:12:25;;;;;;;18.38;5.68;;;;;;;;;;5072220;28;20052;-67
2022/03/17 07:14:51;;;;;;;17.48;6.00;;;;;;;;;;5072120;28;20033;-68
2022/03/17 07:17:20;;;;;;;20.00;5.60;;;;;;;;;;5072457;28;20108;-69
2022/03/17 07:22:23;;;;;;;21.50;5.88;;;;;;;;;;5071852;28;20529;-68
2022/03/17 07:24:48;;;;;;;16.02;5.45;;;;;;;;;;5071709;28;20063;-68
2022/03/17 07:27:14;;;;;;;18.17;5.18;;;;;;;;;;5071762;28;20080;-68
2022/03/17 07:29:39;;;;;;;24.65;5.32;;;;;;;;;;5071891;28;20055;-68
2022/03/17 07:32:09;;;;;;;15.13;4.85;;;;;;;;;;5071789;28;20028;-67
2022/03/17 07:34:35;;;;;;;16.77;5.60;;;;;;;;;;5071694;28;20504;-68
2022/03/17 07:37:00;;;;;;;20.45;5.50;;;;;;;;;;5071759;28;20036;-67
2022/03/17 07:39:26;;;;;;;23.83;6.00;;;;;;;;;;5071432;28;20028;-67
2022/03/17 07:41:51;;;;;;;20.73;5.35;;;;;;;;;;5071669;28;20029;-67
2022/03/17 07:44:17;;;;;;;18.23;5.35;;;;;;;;;;5071630;28;20039;-68
2022/03/17 07:46:42;;;;;;;22.20;5.47;;;;;;;;;;5071576;28;20032;-71
2022/03/17 07:49:08;;;;;;;14.80;5.18;;;;;;;;;;5071462;28;20062;-68
2022/03/17 07:51:33;;;;;;;24.48;5.95;;;;;;;;;;5071502;28;20388;-68
2022/03/17 07:53:59;;;;;;;19.30;5.35;;;;;;;;;;5071108;28;20413;-67
2022/03/17 07:56:24;;;;;;;19.80;5.45;;;;;;;;;;5071338;28;20043;-67
2022/03/17 07:58:50;;;;;;;15.90;5.63;;;;;;;;;;5071058;28;20048;-66
2022/03/17 08:01:17;;;;;;;20.40;5.60;;;;;;;;;;5071256;28;20116;-68
2022/03/17 08:03:43;;;;;;;19.85;5.43;;;;;;;;;;5071019;28;20028;-72
2022/03/17 08:06:09;;;;;;;18.15;5.50;;;;;;;;;;5071629;28;20032;-69
2022/03/17 08:08:34;;;;;;;21.52;5.72;;;;;;;;;;5071072;28;20032;-69
2022/03/17 08:11:00;;;;;;;20.63;5.55;;;;;;;;;;5071081;28;20036;-70
2022/03/17 08:13:26;;;;;;;17.65;5.85;;;;;;;;;;5070805;28;20029;-68
2022/03/17 08:15:52;;;;;;;16.70;5.78;;;;;;;;;;5070606;28;21193;-69
2022/03/17 08:18:18;;;;;;;17.02;5.18;;;;;;;;;;5070907;28;20539;-72
2022/03/17 08:20:44;;;;;;;25.95;5.50;;;;;;;;;;5070605;28;20111;-68
2022/03/17 08:23:10;;;;;;;24.17;5.78;;;;;;;;;;5070776;28;20035;-68
2022/03/17 08:25:36;;;;;;;20.00;5.40;;;;;;;;;;5070355;28;20040;-67
2022/03/17 08:28:02;;;;;;;17.80;5.93;;;;;;;;;;5071056;28;20092;-70
2022/03/17 08:30:36;;;;;;;17.95;5.97;;;;;;;;;;5070187;28;20502;-67
2022/03/17 08:33:04;;;;;;;18.58;5.80;;;;;;;;;;5070602;28;20503;-68
2022/03/17 08:35:29;;;;;;;18.75;5.63;;;;;;;;;;5070388;28;20511;-67
2022/03/17 08:37:57;;;;;;;22.90;5.78;;;;;;;;;;5070451;28;20033;-66
2022/03/17 08:40:22;;;;;;;15.82;5.82;;;;;;;;;;5070465;28;20032;-67
2022/03/17 08:42:48;;;;;;;19.27;6.20;;;;;;;;;;5070429;28;20029;-67
2022/03/17 08:50:44;;;;;;;14.57;6.32;;;;;;;;;;5070501;28;20093;-68
2022/03/17 08:53:10;;;;;;;16.75;5.70;;;;;;;;;;5070142;28;20025;-67
2022/03/17 08:55:36;;;;;;;20.85;5.88;;;;;;;;;;5070207;28;20154;-67
2022/03/17 08:58:03;;;;;;;18.73;6.05;;;;;;;;;;5070369;28;20245;-67
2022/03/17 09:00:31;;;;;;;17.88;6.13;;;;;;;;;;5069910;28;20024;-67
2022/03/17 09:03:01;;;;;;;16.50;5.72;;;;;;;;;;5070705;28;20025;-67
2022/03/17 09:05:27;;;;;;;;;;;;;;;;;;5070955;28;20433;-66
2022/03/17 09:07:52;;;;;;;16.20;5.72;;;;;;;;;;5070036;28;19977;-67
2022/03/17 09:10:18;;;;;;;18.60;6.57;;;;;;;;;;5070055;28;20027;-67
2022/03/17 09:12:44;;;;;;;13.85;5.85;;;;;;;;;;5070017;28;20048;-67
2022/03/17 09:15:11;;;;;;;15.80;6.65;;;;;;;;;;5069536;28;20021;-66
2022/03/17 09:17:40;;;;;;;16.20;5.85;;;;;;;;;;5069994;28;20032;-67
2022/03/17 09:20:08;;;;;;;13.60;6.13;;;;;;;;;;5069860;28;20075;-67
2022/03/17 09:22:34;;;;;;;15.73;5.53;;;;;;;;;;5070058;28;20104;-67
2022/03/17 09:25:00;;;;;;;18.48;5.70;;;;;;;;;;5069560;28;20117;-68
2022/03/17 09:27:28;;;;;;;16.30;5.78;;;;;;;;;;5069805;28;20396;-67
2022/03/17 09:29:53;;;;;;;15.07;5.53;;;;;;;;;;5069544;28;20062;-67
2022/03/17 09:32:20;;;;;;;14.68;5.18;;;;;;;;;;5069827;28;20415;-68
2022/03/17 09:34:46;;;;;;;12.85;5.13;;;;;;;;;;5069630;28;20029;-67
2022/03/17 09:37:11;;;;;;;16.08;5.30;;;;;;;;;;5069773;28;20074;-68
2022/03/17 09:39:44;;;;;;;15.45;5.75;;;;;;;;;;5069670;28;20052;-67
2022/03/17 09:42:09;;;;;;;10.55;4.57;;;;;;;;;;5070329;28;20024;-66
2022/03/17 09:44:35;;;;;;;10.45;4.78;;;;;;;;;;5073584;28;20062;-66
2022/03/17 09:47:03;;;;;;;13.57;4.57;;;;;;;;;;5073430;28;20373;-67
2022/03/17 09:49:29;;;;;;;14.63;5.30;;;;;;;;;;5073742;28;20047;-67
2022/03/17 09:51:57;;;;;;;10.98;4.78;;;;;;;;;;5073447;28;20024;-67
2022/03/17 09:54:22;;;;;;;12.13;4.53;;;;;;;;;;5073558;28;20027;-67
2022/03/17 09:56:48;;;;;;;10.23;4.47;;;;;;;;;;5073421;28;20024;-67
2022/03/17 09:59:13;;;;;;;10.65;4.40;;;;;;;;;;5073558;28;20109;-67
2022/03/17 10:01:39;;;;;;;17.88;4.57;;;;;;;;;;5073416;28;20102;-67
2022/03/17 10:04:07;;;;;;;14.35;4.60;;;;;;;;;;5073581;28;20434;-67
2022/03/17 10:06:32;;;;;;;16.58;4.93;;;;;;;;;;5073420;28;20367;-68
2022/03/17 10:08:58;;;;;;;8.52;4.15;;;;;;;;;;5073435;28;20281;-66
2022/03/17 10:11:30;;;;;;;17.10;4.93;;;;;;;;;;5072925;28;20397;-67
2022/03/17 10:13:57;;;;;;;16.30;4.97;;;;;;;;;;5073245;28;20077;-67
2022/03/17 10:16:24;;;;;;;12.25;4.55;;;;;;;;;;5072880;28;20020;-68
2022/03/17 10:19:01;;;;;;;14.57;4.30;;;;;;;;;;5073357;28;20058;-67
2022/03/17 10:21:27;;;;;;;12.55;4.28;;;;;;;;;;5073107;28;20028;-69
2022/03/17 10:24:06;;;;;;;11.35;4.35;;;;;;;;;;5073089;28;20024;-66
2022/03/17 10:26:51;;;;;;;10.88;4.25;;;;;;;;;;5072763;28;20166;-67
2022/03/17 10:29:30;;;;;;;11.43;4.75;;;;;;;;;;5073033;28;20385;-67
2022/03/17 10:32:07;;;;;;;18.65;4.40;;;;;;;;;;5072545;28;20403;-67
2022/03/17 10:34:51;;;;;;;14.02;4.45;;;;;;;;;;5072632;28;20030;-67
2022/03/17 10:37:18;;;;;;;11.30;4.32;;;;;;;;;;5072866;28;20112;-68
2022/03/17 10:39:47;;;;;;;20.88;5.38;;;;;;;;;;5072753;28;20068;-68
2022/03/17 10:42:22;;;;;;;13.10;4.60;;;;;;;;;;5072673;28;20078;-67
2022/03/17 10:44:49;;;;;;;15.07;4.50;;;;;;;;;;5072454;28;20580;-68
2022/03/17 10:47:25;;;;;;;10.88;4.38;;;;;;;;;;5072506;28;20043;-67
2022/03/17 10:50:12;;;;;;;14.18;5.00;;;;;;;;;;5072503;28;20535;-68
2022/03/17 10:52:56;;;;;;;11.18;4.25;;;;;;;;;;5072404;28;20455;-66
2022/03/17 10:55:24;;;;;;;11.57;4.53;;;;;;;;;;5071801;28;20439;-66
2022/03/17 10:57:51;;;;;;;12.13;4.75;;;;;;;;;;5072569;28;20396;-67
2022/03/17 11:00:25;;;;;;;14.52;4.53;;;;;;;;;;5072393;28;20454;-67
2022/03/17 11:02:57;;;;;;;14.45;4.50;;;;;;;;;;5072454;28;20047;-67
2022/03/17 11:05:23;;;;;;;9.68;4.28;;;;;;;;;;5072005;28;20036;-67
2022/03/17 11:07:51;;;;;;;15.35;5.00;;;;;;;;;;5072051;28;20511;-67
2022/03/17 11:10:19;;;;;;;12.75;4.50;;;;;;;;;;5072264;28;20020;-67
2022/03/17 11:12:45;;;;;;;10.10;4.07;;;;;;;;;;5072099;28;20598;-67
2022/03/17 11:15:10;;;;;;;11.45;4.72;;;;;;;;;;5071841;28;20107;-67
2022/03/17 11:17:39;;;;;;;15.57;4.40;;;;;;;;;;5072462;28;20037;-68
2022/03/17 11:20:10;;;;;;;12.15;4.65;;;;;;;;;;5072138;28;20510;-67
2022/03/17 11:22:36;;;;;;;12.63;5.20;;;;;;;;;;5071839;28;20880;-68
2022/03/17 11:25:24;;;;;;;12.15;5.07;;;;;;;;;;5071835;28;20020;-67
2022/03/17 11:27:56;;;;;;;11.00;4.50;;;;;;;;;;5071634;28;20021;-67
2022/03/17 11:30:22;;;;;;;12.65;4.20;;;;;;;;;;5071957;28;20040;-67
2022/03/17 11:32:54;;;;;;;12.20;4.20;;;;;;;;;;5071491;28;20472;-66
2022/03/17 11:35:29;;;;;;;15.48;4.43;;;;;;;;;;5071887;28;20027;-66
2022/03/17 11:38:14;;;;;;;15.63;5.00;;;;;;;;;;5071683;28;20016;-67
2022/03/17 11:41:05;;;;;;;10.90;4.28;;;;;;;;;;5071821;28;20285;-71
2022/03/17 11:43:45;;;;;;;11.85;4.20;;;;;;;;;;5071637;28;20032;-68
2022/03/17 11:46:34;;;;;;;14.63;4.45;;;;;;;;;;5071104;28;20029;-67
2022/03/17 11:49:19;;;;;;;12.48;4.05;;;;;;;;;;5071619;28;20484;-66
2022/03/17 11:51:55;;;;;;;12.45;4.07;;;;;;;;;;5071336;28;20150;-66
2022/03/17 11:54:21;;;;;;;13.77;4.40;;;;;;;;;;5071686;28;20044;-67
2022/03/17 11:56:53;;;;;;;18.23;4.50;;;;;;;;;;5071397;28;20056;-69
2022/03/17 11:59:22;;;;;;;11.43;4.40;;;;;;;;;;5071586;28;20020;-67
2022/03/17 12:01:48;;;;;;;13.68;4.53;;;;;;;;;;5071117;28;20024;-67
2022/03/17 12:04:30;;;;;;;14.63;3.90;;;;;;;;;;5071002;28;20390;-68
2022/03/17 12:07:09;;;;;;;13.30;4.20;;;;;;;;;;5069780;28;20056;-71
2022/03/17 12:09:35;;;;;;;15.05;4.43;;;;;;;;;;5071168;28;20095;-68
2022/03/17 12:12:02;;;;;;;11.20;3.70;;;;;;;;;;5070949;28;20094;-68
2022/03/17 12:14:34;;;;;;;11.05;3.72;;;;;;;;;;5071034;28;20016;-68
2022/03/17 12:17:06;;;;;;;16.38;3.88;;;;;;;;;;5070672;28;20472;-70
2022/03/17 12:19:48;;;;;;;10.68;3.65;;;;;;;;;;5071121;28;20472;-72
2022/03/17 12:22:26;;;;;;;12.57;3.28;;;;;;;;;;5070680;28;20047;-67
2022/03/17 12:24:59;;;;;;;16.17;3.40;;;;;;;;;;5070893;28;20150;-68
2022/03/17 12:27:35;;;;;;;11.23;3.20;;;;;;;;;;5070658;28;20020;-67
2022/03/17 12:30:13;;;;;;;13.25;3.63;;;;;;;;;;5070639;28;20084;-67
2022/03/17 12:32:57;;;;;;;15.27;3.75;;;;;;;;;;5070697;28;20111;-67
2022/03/17 12:35:26;;;;;;;13.70;3.63;;;;;;;;;;5070628;28;20240;-71
2022/03/17 12:38:00;;;;;;;14.55;3.60;;;;;;;;;;5070730;28;20039;-67
2022/03/17 12:40:26;;;;;;;13.18;3.90;;;;;;;;;;5070616;28;20107;-67
2022/03/17 12:42:53;;;;;;;14.48;3.55;;;;;;;;;;5070264;28;20456;-67
2022/03/17 12:45:23;;;;;;;14.35;3.67;;;;;;;;;;5070037;28;20035;-66
2022/03/17 12:47:56;;;;;;;;;;;;;;;;;;5070666;28;20033;-66
2022/03/17 12:50:23;;;;;;;14.55;3.67;;;;;;;;;;5070626;28;19912;-67
2022/03/17 12:52:50;;;;;;;11.45;3.80;;;;;;;;;;5070156;28;20056;-68
2022/03/17 12:55:19;;;;;;;15.40;3.83;;;;;;;;;;5070230;28;20032;-69
2022/03/17 12:57:46;;;;;;;13.80;3.63;;;;;;;;;;5070210;28;20044;-68
2022/03/17 13:00:14;;;;;;;11.43;3.83;;;;;;;;;;5070113;28;20075;-67
2022/03/17 13:02:50;;;;;;;14.57;4.20;;;;;;;;;;5069941;28;20062;-68
2022/03/17 13:08:03;;;;;;;21.92;4.55;;;;;;;;;;5069975;28;20388;-69
2022/03/17 13:14:20;;;;;;;13.65;4.18;;;;;;;;;;5070391;28;20028;-67
2022/03/17 13:15:59;;;;;;;16.17;4.80;;;;;;;;;;5069893;28;20090;-67
2022/03/17 13:18:25;;;;;;;19.58;5.32;;;;;;;;;;5069567;28;20021;-68
2022/03/17 13:20:59;;;;;;;18.02;5.10;;;;;;;;;;5070112;28;20392;-67
2022/03/17 13:23:35;;;;;;;18.65;5.10;;;;;;;;;;5069747;28;20078;-68
2022/03/17 13:26:00;;;;;;;16.92;4.97;;;;;;;;;;5070210;28;20047;-68
2022/03/17 13:28:27;;;;;;;19.13;5.50;;;;;;;;;;5070209;28;20048;-67
2022/03/17 13:30:53;;;;;;;16.73;5.70;;;;;;;;;;5070207;28;20487;-68
2022/03/17 13:33:29;;;;;;;18.42;5.72;;;;;;;;;;5069826;28;20039;-68
2022/03/17 13:35:55;;;;;;;18.95;6.30;;;;;;;;;;5069703;28;20104;-67
2022/03/17 13:38:29;;;;;;;17.73;6.38;;;;;;;;;;5069647;28;20112;-68
2022/03/17 13:40:56;;;;;;;18.08;6.22;;;;;;;;;;5070284;28;20434;-69
2022/03/17 13:43:27;;;;;;;16.95;6.25;;;;;;;;;;5069839;28;20036;-69
2022/03/17 13:45:53;;;;;;;15.63;6.63;;;;;;;;;;5069222;28;20094;-67
2022/03/17 13:48:25;;;;;;;17.73;7.40;;;;;;;;;;5069566;28;20028;-66
2022/03/17 13:50:54;;;;;;;22.77;7.40;;;;;;;;;;5069913;28;20103;-67
2022/03/17 13:53:31;;;;;;;20.98;7.80;;;;;;;;;;5069643;28;20498;-68
2022/03/17 13:56:02;;;;;;;21.33;7.93;;;;;;;;;;5069627;28;20496;-70
2022/03/17 13:58:57;;;;;;;24.13;8.13;;;;;;;;;;5069277;28;20107;-67
2022/03/17 14:01:23;;;;;;;24.90;8.30;;;;;;;;;;5068724;28;20028;-68
2022/03/17 14:03:50;;;;;;;21.48;8.57;;;;;;;;;;5069392;28;20495;-68
2022/03/17 14:06:23;;;;;;;21.85;9.00;;;;;;;;;;5069443;28;20029;-68
2022/03/17 14:08:52;;;;;;;26.95;9.55;;;;;;;;;;5069374;28;20025;-71
2022/03/17 14:11:31;;;;;;;22.40;10.35;;;;;;;;;;5069655;28;20043;-69
2022/03/17 14:14:03;;;;;;;28.58;10.00;;;;;;;;;;5069299;28;20032;-68
2022/03/17 14:16:30;;;;;;;26.17;9.30;;;;;;;;;;5069192;28;20046;-68
2022/03/17 14:18:57;;;;;;;28.63;10.38;;;;;;;;;;5069095;28;20089;-68
2022/03/17 14:21:24;;;;;;;29.05;10.50;;;;;;;;;;5069421;28;20032;-67
2022/03/17 14:26:36;;;;;;;26.38;11.38;;;;;;;;;;5069212;28;20440;-69
2022/03/17 14:29:04;;;;;;;28.95;11.05;;;;;;;;;;5069579;28;20043;-67
2022/03/17 14:31:32;;;;;;;25.15;11.23;;;;;;;;;;5072913;28;20028;-67
2022/03/17 14:33:59;;;;;;;31.65;12.45;;;;;;;;;;5072776;28;20027;-67
2022/03/17 14:36:30;;;;;;;30.23;12.05;;;;;;;;;;5072623;28;20161;-66
2022/03/17 14:38:56;;;;;;;33.80;11.27;;;;;;;;;;5072639;28;20476;-68
2022/03/17 14:41:22;;;;;;;28.27;10.85;;;;;;;;;;5072899;28;20039;-67
2022/03/17 14:43:50;;;;;;;27.77;11.27;;;;;;;;;;5072604;28;20031;-67
2022/03/17 14:46:16;;;;;;;35.05;11.65;;;;;;;;;;5072452;28;20098;-66
2022/03/17 14:48:42;;;;;;;33.10;11.70;;;;;;;;;;5072679;28;20040;-66
2022/03/17 14:51:11;;;;;;;26.63;11.13;;;;;;;;;;5072834;28;20040;-66
2022/03/17 14:53:38;;;;;;;25.60;11.30;;;;;;;;;;5072456;28;20056;-67
2022/03/17 14:56:09;;;;;;;33.17;11.20;;;;;;;;;;5072264;28;20028;-67
2022/03/17 14:58:43;;;;;;;29.30;11.60;;;;;;;;;;5072326;28;20048;-67
2022/03/17 15:01:10;;;;;;;30.17;11.68;;;;;;;;;;5072233;28;20024;-70
2022/03/17 15:03:43;;;;;;;37.35;11.90;;;;;;;;;;5072206;28;20209;-67